Latest Weather Observations for Avalon

IDV60801

Issued at 2:52 am EST Thursday 28 May 2020 (issued every 10 minutes, with the page automatically refreshed every 10 minutes)

About weather observations | Map of weather stations | Latest weather observations for VIC | Other Formats
Station Details ID: 087113 Name: AVALON AIRPORT Lat: -38.03 Lon: 144.48 Height: 10.6 m
Data from the previous 72 hours. | See also: Recent months at Avalon
Date/Time
EST
Temp
°C
App
Temp
°C
Dew
Point
°C
Rel
Hum
%
Delta-T
°C
Wind Press
QNH
hPa
Press
MSL
hPa
Rain since
9am
mm
Dir  Spd
km/h
Gust
km/h
Spd
kts
Gust
kts
28/02:30am 11.9 9.6 8.9 82 1.5 NNE 11 13 6 7 1019.2 1019.2 0.0
28/02:00am 11.6 10.1 9.3 86 1.2 N 7 9 4 5 1019.1 1019.1 0.0
28/01:30am 11.6 9.1 9.7 88 1.0 NNE 13 17 7 9 1018.9 1018.9 0.0
28/01:00am 10.6 7.7 9.5 93 0.5 NE 15 17 8 9 1019.0 1019.0 0.0
28/12:30am 10.6 8.0 9.2 91 0.7 NE 13 15 7 8 1019.1 1019.1 0.0
28/12:00am 10.9 8.3 9.2 89 0.8 NE 13 17 7 9 1019.1 1019.1 0.0
 
Date/Time
EST
Temp
°C
App
Temp
°C
Dew
Point
°C
Rel
Hum
%
Delta-T
°C
Wind Press
QNH
hPa
Press
MSL
hPa
Rain since
9am
mm
Dir  Spd
km/h
Gust
km/h
Spd
kts
Gust
kts
27/11:30pm 9.9 7.6 9.0 94 0.4 NE 11 13 6 7 1019.0 1019.0 0.0
27/11:00pm 9.5 8.2 7.8 89 0.8 ENE 4 7 2 4 1019.1 1019.1 0.0
27/10:30pm 11.1 9.3 7.8 80 1.6 NNE 7 11 4 6 1019.0 1019.0 0.0
27/10:00pm 11.9 8.6 8.2 78 1.8 N 15 17 8 9 1019.0 1019.0 0.0
27/09:30pm 11.7 8.7 7.8 77 1.9 N 13 17 7 9 1018.9 1018.9 0.0
27/09:00pm 12.1 10.1 8.6 79 1.7 N 9 17 5 9 1018.9 1018.9 0.0
27/08:30pm 11.7 9.1 7.8 77 1.9 N 11 19 6 10 1018.9 1018.9 0.0
27/08:00pm 11.7 9.9 9.4 86 1.2 N 9 22 5 12 1018.7 1018.7 0.0
27/07:30pm 12.0 9.6 10.1 88 1.0 NE 13 15 7 8 1018.5 1018.5 0.0
27/07:00pm 12.6 10.9 8.3 75 2.1 NNE 7 9 4 5 1018.4 1018.4 0.0
27/06:30pm 13.0 10.9 8.1 72 2.4 N 9 11 5 6 1018.2 1018.2 0.0
27/06:00pm 12.5 9.6 8.0 74 2.2 N 13 17 7 9 1018.2 1018.2 0.0
27/05:30pm 13.6 12.8 11.1 85 1.3 N 6 7 3 4 1017.9 1017.9 0.0
27/05:00pm 13.6 12.1 10.4 81 1.7 N 9 13 5 7 1017.7 1017.7 0.0
27/04:30pm 15.0 12.7 10.6 75 2.3 NNE 13 17 7 9 1017.5 1017.5 0.0
27/04:00pm 15.3 13.5 10.7 74 2.4 NNE 11 15 6 8 1017.3 1017.3 0.0
27/03:30pm 15.6 12.9 10.2 70 2.8 NE 15 19 8 10 1017.4 1017.4 0.0
27/03:00pm 16.6 14.3 10.5 67 3.2 NNE 13 19 7 10 1017.5 1017.5 0.0
27/02:30pm 16.8 14.9 10.4 66 3.4 NNE 11 17 6 9 1017.8 1017.8 0.0
27/02:00pm 16.4 14.1 10.5 68 3.1 NNE 13 17 7 9 1017.9 1017.9 0.0
27/01:30pm 15.5 12.8 10.5 72 2.6 NNE 15 20 8 11 1018.1 1018.1 0.0
27/01:00pm 15.7 12.3 10.7 72 2.6 NNE 19 24 10 13 1018.3 1018.3 0.0
27/12:30pm 15.1 12.1 10.5 74 2.4 NNE 17 24 9 13 1018.6 1018.6 0.0
27/12:00pm 14.5 10.8 10.3 76 2.2 NNE 20 30 11 16 1018.8 1018.8 0.0
27/11:30am 14.4 10.8 10.4 77 2.1 NNE 20 28 11 15 1019.3 1019.3 0.0
27/11:00am 13.8 10.9 11.0 83 1.5 NNE 17 24 9 13 1019.7 1019.7 0.0
27/10:30am 13.9 11.9 11.6 86 1.2 NNE 13 19 7 10 1020.1 1020.1 0.0
27/10:00am 13.1 10.3 11.3 89 0.9 NNE 17 20 9 11 1020.3 1020.3 0.0
27/09:30am 11.1 8.9 10.9 99 0.1 NE 13 15 7 8 1020.3 1020.3 0.0
27/09:00am 9.6 7.8 9.6 100 0.0 NNE 9 13 5 7 1020.4 1020.4 0.0
27/08:30am 7.0 5.9 7.0 100 0.0 N 2 9 1 5 1020.4 1020.4 0.0
27/08:00am 6.3 5.1 6.3 100 0.0 NW 2 9 1 5 1020.1 1020.1 0.0
27/07:30am 7.1 4.0 7.1 100 0.0 NNE 13 17 7 9 1020.2 1020.2 0.0
27/07:00am 6.0 3.9 6.0 100 0.0 NW 6 11 3 6 1020.2 1020.2 0.0
27/06:30am 6.4 4.2 6.4 100 0.0 NNW 7 9 4 5 1019.9 1019.9 0.0
27/06:00am 6.0 5.1 6.0 100 0.0 CALM 0 4 0 2 1019.9 1019.9 0.0
27/05:30am 6.3 4.1 6.3 100 0.0 N 7 17 4 9 1020.0 1020.0 0.0
27/05:00am 5.6 3.3 5.6 100 0.0 NNE 7 9 4 5 1020.0 1020.0 0.0
27/04:30am 7.7 6.0 7.7 100 0.0 NE 6 7 3 4 1019.8 1019.8 0.0
27/04:00am 6.6 5.8 6.6 100 0.0 CALM 0 0 0 0 1019.8 1019.8 0.0
27/03:30am 6.2 5.3 6.1 99 0.0 CALM 0 0 0 0 1020.0 1020.0 0.0
27/03:00am 6.9 6.2 6.8 99 0.0 CALM 0 0 0 0 1020.0 1020.0 0.0
27/02:30am 8.0 5.5 8.0 100 0.0 E 11 13 6 7 1020.2 1020.2 0.0
27/02:00am 6.9 4.5 6.9 100 0.0 E 9 11 5 6 1020.3 1020.3 0.0
27/01:30am 6.4 3.5 6.3 99 0.0 ESE 11 13 6 7 1020.3 1020.3 0.0
27/01:08am 6.8 4.3 6.7 99 0.0 S 9 11 5 6 1020.5 1020.5 0.0
27/01:00am 6.7 5.5 6.6 99 0.0 SW 2 11 1 6 1020.6 1020.6 0.0
27/12:49am 7.3 5.4 6.9 97 0.2 WSW 6 11 3 6 1020.8 1020.8 0.0
27/12:30am 8.2 4.8 7.6 96 0.3 NE 15 19 8 10 1020.5 1020.5 0.0
27/12:00am 9.3 6.8 8.2 93 0.5 NNE 11 15 6 8 1020.8 1020.8 0.0
 
Date/Time
EST
Temp
°C
App
Temp
°C
Dew
Point
°C
Rel
Hum
%
Delta-T
°C
Wind Press
QNH
hPa
Press
MSL
hPa
Rain since
9am
mm
Dir  Spd
km/h
Gust
km/h
Spd
kts
Gust
kts
26/11:30pm 9.2 6.0 8.4 95 0.4 NNE 15 19 8 10 1021.0 1021.0 0.0
26/11:00pm 7.5 4.4 7.4 99 0.0 NNE 13 17 7 9 1021.1 1021.1 0.0
26/10:30pm 7.6 5.3 7.5 99 0.0 NE 9 11 5 6 1021.3 1021.3 0.0
26/10:00pm 7.5 5.2 7.4 99 0.0 NE 9 11 5 6 1021.4 1021.4 0.0
26/09:30pm 8.7 5.9 8.6 99 0.0 NNE 13 15 7 8 1021.7 1021.7 0.0
26/09:00pm 8.2 6.1 8.2 100 0.0 N 9 11 5 6 1021.8 1021.8 0.0
26/08:30pm 7.6 7.0 7.6 100 0.0 CALM 0 0 0 0 1021.8 1021.8 0.0
26/08:14pm 8.1 6.9 8.1 100 0.0 NNE 4 7 2 4 1021.8 1021.8 0.0
26/08:00pm 9.1 8.5 9.1 100 0.0 N 2 7 1 4 1021.9 1021.9 0.0
26/07:55pm 8.2 7.8 8.2 100 0.0 CALM 0 0 0 0 1022.0 1022.0 0.0
26/07:44pm 8.3 7.9 8.3 100 0.0 CALM 0 0 0 0 1021.9 1021.9 0.0
26/07:34pm 8.8 8.5 8.8 100 0.0 CALM 0 0 0 0 1021.8 1021.8 0.0
26/07:30pm 8.7 8.4 8.7 100 0.0 CALM 0 4 0 2 1021.8 1021.8 0.0
26/07:06pm 8.7 7.3 8.7 100 0.0 N 6 7 3 4 1021.9 1021.9 0.0
26/07:00pm 8.1 6.3 8.1 100 0.0 NNW 7 7 4 4 1021.9 1021.9 0.0
26/06:46pm 8.9 7.3 8.9 100 0.0 NNW 7 7 4 4 1021.9 1021.9 0.0
26/06:30pm 9.4 8.0 9.4 100 0.0 N 7 7 4 4 1021.8 1021.8 0.0
26/06:00pm 9.9 9.9 9.8 99 0.0 CALM 0 0 0 0 1021.6 1021.6 0.0
26/05:30pm 11.3 10.4 10.5 95 0.4 ENE 6 9 3 5 1021.6 1021.6 0.0
26/05:00pm 12.2 10.8 10.9 92 0.7 ENE 9 9 5 5 1021.6 1021.6 0.0
26/04:30pm 12.5 11.2 11.2 92 0.7 E 9 13 5 7 1021.6 1021.6 0.0
26/04:00pm 12.7 11.0 11.1 90 0.8 ESE 11 15 6 8 1021.6 1021.6 0.0
26/03:30pm 13.1 11.3 11.0 87 1.1 ESE 11 13 6 7 1021.5 1021.5 0.0
26/03:00pm 12.7 11.1 11.6 93 0.6 SE 11 15 6 8 1021.6 1021.6 0.0
26/02:30pm 12.2 10.2 11.6 96 0.3 SE 13 17 7 9 1021.9 1021.9 0.0
26/02:00pm 11.9 9.6 10.6 92 0.7 SE 13 17 7 9 1022.1 1022.1 0.0
26/01:30pm 13.5 12.3 11.6 88 1.0 ENE 9 13 5 7 1022.6 1022.6 0.0
26/01:00pm 12.4 11.8 12.4 100 0.0 NE 7 11 4 6 1023.0 1023.0 0.0
26/12:34pm 11.0 10.0 11.0 100 0.0 ENE 7 13 4 7 1023.3 1023.3 0.0
26/12:30pm 10.8 9.7 10.8 100 0.0 ENE 7 13 4 7 1023.4 1023.4 0.0
26/12:00pm 9.3 7.8 9.3 100 0.0 ENE 7 11 4 6 1023.8 1023.8 0.0
26/11:58am 9.6 8.2 9.6 100 0.0 ENE 7 11 4 6 1023.8 1023.8 0.0
26/11:30am 8.4 6.3 8.4 100 0.0 NE 9 13 5 7 1024.4 1024.4 0.0
26/11:00am 8.2 5.3 8.2 100 0.0 NE 13 17 7 9 1025.0 1025.0 0.0
26/10:30am 7.8 4.4 7.8 100 0.0 NE 15 19 8 10 1025.6 1025.6 0.0
26/10:00am 7.9 4.9 7.9 100 0.0 NE 13 17 7 9 1025.9 1025.9 0.0
26/09:30am 8.0 5.8 8.0 100 0.0 NE 9 13 5 7 1025.9 1025.9 0.0
26/09:00am 7.8 6.2 7.8 100 0.0 NNE 6 7 3 4 1026.0 1026.0 0.0
26/08:45am 7.8 6.0 7.8 100 0.0 N 7 9 4 5 1026.1 1026.1 0.0
26/08:39am 7.7 6.0 7.7 100 0.0 N 6 9 3 5 1026.2 1026.2 0.0
26/08:30am 7.5 5.8 7.5 100 0.0 NNW 6 7 3 4 1026.0 1026.0 0.0
26/08:11am 7.1 5.1 7.1 100 0.0 N 7 7 4 4 1026.0 1026.0 0.0
26/08:00am 6.8 4.7 6.8 100 0.0 NNW 7 9 4 5 1025.9 1025.9 0.0
26/07:30am 6.7 5.9 6.7 100 0.0 CALM 0 0 0 0 1025.6 1025.6 0.0
26/07:23am 6.9 6.2 6.9 100 0.0 CALM 0 0 0 0 1025.6 1025.6 0.0
26/07:00am 6.4 3.9 6.4 100 0.0 N 9 11 5 6 1025.8 1025.8 0.0
26/06:30am 8.2 7.0 8.2 100 0.0 SSE 4 7 2 4 1025.3 1025.3 0.0
26/06:00am 7.8 5.6 7.8 100 0.0 S 9 11 5 6 1024.6 1024.6 0.0
26/05:30am 7.5 4.8 7.5 100 0.0 SSW 11 11 6 6 1024.5 1024.5 0.0
26/05:00am 8.1 6.0 8.1 100 0.0 W 9 11 5 6 1024.8 1024.8 0.0
26/04:30am 7.4 5.1 7.4 100 0.0 NW 9 13 5 7 1024.7 1024.7 0.0
26/04:00am 7.3 4.2 7.3 100 0.0 N 13 15 7 8 1024.4 1024.4 0.0
26/03:47am 6.8 3.6 6.8 100 0.0 N 13 17 7 9 1024.5 1024.5 0.0
26/03:30am 7.7 6.0 7.7 100 0.0 NNE 6 9 3 5 1024.3 1024.3 0.0
26/03:00am 7.6 5.7 7.6 100 0.0 NNE 7 9 4 5 1024.3 1024.3 0.0
26/02:30am 8.2 6.1 8.2 100 0.0 NNE 9 11 5 6 1024.6 1024.6 0.0
26/02:00am 9.7 7.2 9.7 100 0.0 E 13 15 7 8 1024.7 1024.7 0.0
26/01:30am 9.5 6.6 9.5 100 0.0 E 15 20 8 11 1024.8 1024.8 0.0
26/01:00am 9.8 7.3 9.8 100 0.0 E 13 15 7 8 1025.3 1025.3 0.0
26/12:30am 10.2 8.6 10.2 100 0.0 E 9 15 5 8 1025.6 1025.6 0.0
26/12:00am 10.5 7.8 10.3 99 0.1 E 15 19 8 10 1025.7 1025.7 0.0
 
Date/Time
EST
Temp
°C
App
Temp
°C
Dew
Point
°C
Rel
Hum
%
Delta-T
°C
Wind Press
QNH
hPa
Press
MSL
hPa
Rain since
9am
mm
Dir  Spd
km/h
Gust
km/h
Spd
kts
Gust
kts
25/11:30pm 11.1 8.2 10.9 99 0.1 E 17 22 9 12 1025.8 1025.8 0.0
25/11:00pm 11.3 8.4 11.1 99 0.1 E 17 20 9 11 1025.9 1025.9 0.0
25/10:30pm 11.0 8.1 11.0 100 0.0 ENE 17 24 9 13 1025.9 1025.9 0.0
25/10:23pm 10.8 7.8 10.8 100 0.0 E 17 20 9 11 1025.9 1025.9 0.0
25/10:00pm 10.4 7.3 10.4 100 0.0 E 17 20 9 11 1025.8 1025.8 0.0
25/09:30pm 10.8 7.3 10.8 100 0.0 E 20 28 11 15 1025.6 1025.6 0.0
25/09:00pm 10.6 7.6 10.6 100 0.0 ESE 17 24 9 13 1025.5 1025.5 0.0
25/08:30pm 8.7 7.1 8.7 100 0.0 ESE 7 9 4 5 1025.7 1025.7 0.0
25/08:00pm 9.2 6.6 9.2 100 0.0 SE 13 17 7 9 1025.4 1025.4 0.0
25/07:30pm 8.1 5.6 8.0 99 0.0 SSE 11 13 6 7 1025.3 1025.3 0.0
25/07:00pm 9.0 6.7 8.9 99 0.0 SSE 11 15 6 8 1025.4 1025.4 0.0
25/06:30pm 8.7 6.7 8.6 99 0.0 S 9 11 5 6 1025.4 1025.4 0.0
25/06:00pm 9.1 6.6 8.3 95 0.4 S 11 13 6 7 1025.1 1025.1 0.0
25/05:30pm 9.9 7.4 8.2 89 0.8 S 11 13 6 7 1024.8 1024.8 0.0
25/05:00pm 11.7 8.8 8.2 79 1.7 SSE 13 15 7 8 1024.6 1024.6 0.0
25/04:30pm 13.1 10.4 8.8 75 2.2 SE 13 15 7 8 1024.5 1024.5 0.0
25/04:00pm 13.7 10.9 8.7 72 2.5 SE 13 20 7 11 1024.5 1024.5 0.0
25/03:30pm 13.8 10.1 8.0 68 2.9 SE 17 22 9 12 1024.7 1024.7 0.0
25/03:00pm 13.8 9.6 7.6 66 3.0 SE 19 22 10 12 1024.9 1024.9 0.0
25/02:30pm 14.2 10.6 8.4 68 2.9 SE 17 20 9 11 1025.0 1025.0 0.0
25/02:00pm 14.1 10.1 8.1 67 3.0 ESE 19 24 10 13 1024.8 1024.8 0.0
25/01:30pm 14.2 10.3 8.6 69 2.8 SE 19 26 10 14 1024.9 1024.9 0.0
25/01:00pm 14.2 9.7 8.4 68 2.9 ESE 22 26 12 14 1024.9 1024.9 0.0
25/12:30pm 14.1 10.6 8.7 70 2.7 ESE 17 24 9 13 1025.4 1025.4 0.0
25/12:00pm 13.9 9.0 8.5 70 2.7 ESE 24 32 13 17 1025.6 1025.6 0.0
25/11:30am 13.9 10.1 9.1 73 2.4 ESE 19 26 10 14 1026.1 1026.1 0.0
25/11:00am 13.9 10.1 9.9 77 2.1 ESE 20 26 11 14 1026.6 1026.6 0.0
25/10:30am 13.1 11.0 12.5 96 0.3 ESE 15 22 8 12 1026.7 1026.7 0.0
25/10:00am 12.0 12.6 12.0 100 0.0 CALM 0 0 0 0 1026.5 1026.5 0.0
25/09:30am 9.4 8.2 9.4 100 0.0 WNW 6 7 3 4 1026.4 1026.4 0.0
25/09:00am 7.7 5.8 7.7 100 0.0 W 7 9 4 5 1026.5 1026.5 0.0
25/08:30am 5.3 2.5 5.3 100 0.0 NNW 9 11 5 6 1026.1 1026.1 0.0
25/08:00am 3.4 0.6 3.4 100 0.0 NW 7 9 4 5 1026.0 1026.0 0.0
25/07:30am 3.3 0.5 3.3 100 0.0 WNW 7 9 4 5 1025.6 1025.6 0.0
25/07:00am 4.3 1.7 4.3 100 0.0 NW 7 9 4 5 1025.3 1025.3 0.0
25/06:30am 3.9 1.2 3.9 100 0.0 NW 7 7 4 4 1025.0 1025.0 0.0
25/06:00am 4.1 1.5 4.1 100 0.0 NW 7 9 4 5 1025.0 1025.0 0.0
25/05:30am 3.7 0.6 3.7 100 0.0 NW 9 11 5 6 1025.1 1025.1 0.0
25/05:00am 4.6 1.7 4.6 100 0.0 WNW 9 13 5 7 1025.3 1025.3 0.0
25/04:30am 3.9 0.5 3.9 100 0.0 WNW 11 13 6 7 1025.3 1025.3 0.0
25/04:00am 4.0 1.4 4.0 100 0.0 NW 7 11 4 6 1025.2 1025.2 0.0
25/03:30am 4.1 1.1 4.1 100 0.0 NW 9 11 5 6 1025.5 1025.5 0.0
25/03:00am 5.0 2.2 5.0 100 0.0 NW 9 11 5 6 1025.4 1025.4 0.0

Other formats

Comma delimited format used in spreadsheet applications
http://www.bom.gov.au/fwo/IDV60801/IDV60801.94854.axf

JavaScript Object Notation format (JSON) in row-major order
http://www.bom.gov.au/fwo/IDV60801/IDV60801.94854.json

Data quality

Most of these data are generated automatically and are frequently updated. Quality checks on data are not normally performed. It is possible for incorrect values to appear. Refer to information at About Latest Weather Observations and please check the disclaimer before using these data.